Time;durP1;ratioP1;P1;durP2;ratioP2;P2;SDS_P1;SDS_P2;PMS_P1;PMS_P2;Temp;Humidity;BMP_temperature;BMP_pressure;BME280_temperature;BME280_humidity;BME280_pressure;Samples;Min_cycle;Max_cycle;Signal;HPM_P1;HPM_P2
2022/01/31 00:02:03;;;;;;;37.10;6.10;;;3.30;99.90;;;;;;4926058;29;20643;-93
2022/01/31 00:04:30;;;;;;;40.77;6.50;;;3.30;99.90;;;;;;4926155;29;20309;-94
2022/01/31 00:06:57;;;;;;;25.23;4.70;;;3.30;99.90;;;;;;4926114;29;20175;-95
2022/01/31 00:09:24;;;;;;;26.43;5.03;;;3.30;99.90;;;;;;4926303;29;20178;-94
2022/01/31 00:12:01;;;;;;;33.37;5.77;;;3.30;99.90;;;;;;4925600;29;20177;-94
2022/01/31 00:14:44;;;;;;;40.03;5.80;;;3.30;99.90;;;;;;4925110;29;20174;-94
2022/01/31 00:17:11;;;;;;;30.57;5.33;;;3.30;99.90;;;;;;4923836;29;20218;-94
2022/01/31 00:19:40;;;;;;;26.97;5.20;;;3.30;99.90;;;;;;4924007;29;20265;-93
2022/01/31 00:22:09;;;;;;;37.83;6.23;;;3.30;99.90;;;;;;4923810;29;20193;-94
2022/01/31 00:24:36;;;;;;;33.73;6.27;;;3.30;99.90;;;;;;4925326;29;20269;-93
2022/01/31 00:27:04;;;;;;;33.07;5.53;;;3.30;99.90;;;;;;4924347;29;20183;-94
2022/01/31 00:29:30;;;;;;;33.03;5.90;;;3.30;99.90;;;;;;4923307;29;20189;-93
2022/01/31 00:31:57;;;;;;;33.10;5.30;;;3.30;99.90;;;;;;4924852;29;20178;-94
2022/01/31 00:34:23;;;;;;;36.83;5.57;;;3.30;99.90;;;;;;4923391;29;20275;-93
2022/01/31 00:36:50;;;;;;;32.53;5.73;;;3.40;99.90;;;;;;4922877;29;20245;-92
2022/01/31 00:39:16;;;;;;;31.77;5.97;;;3.30;99.90;;;;;;4923255;29;20178;-92
2022/01/31 00:41:42;;;;;;;31.77;5.63;;;3.30;99.90;;;;;;4922138;29;20183;-95
2022/01/31 00:46:47;;;;;;;35.50;5.57;;;3.30;99.90;;;;;;4924727;29;20163;-94
2022/01/31 00:49:23;;;;;;;33.97;5.33;;;3.30;99.90;;;;;;4922439;29;20210;-94
2022/01/31 00:51:49;;;;;;;35.10;6.03;;;3.30;99.90;;;;;;4922716;29;20193;-94
2022/01/31 00:54:16;;;;;;;29.87;5.87;;;3.20;99.90;;;;;;4923268;29;20191;-95
2022/01/31 00:56:42;;;;;;;27.57;5.20;;;3.30;99.90;;;;;;4921604;29;20229;-94
2022/01/31 00:59:08;;;;;;;29.07;4.80;;;3.30;99.90;;;;;;4922032;29;20202;-95
2022/01/31 01:01:33;;;;;;;31.47;5.57;;;3.30;99.90;;;;;;4920927;29;20264;-94
2022/01/31 01:03:59;;;;;;;31.80;5.50;;;3.30;99.90;;;;;;4921134;29;20222;-94
2022/01/31 01:06:25;;;;;;;25.20;5.27;;;3.30;99.90;;;;;;4921679;29;20183;-94
2022/01/31 01:08:51;;;;;;;32.90;6.00;;;3.30;99.90;;;;;;4921248;29;20233;-95
2022/01/31 01:11:17;;;;;;;32.13;5.80;;;3.30;99.90;;;;;;4920978;29;20303;-94
2022/01/31 01:13:42;;;;;;;47.20;7.17;;;3.30;99.90;;;;;;4922387;29;20189;-96
2022/01/31 01:16:09;;;;;;;21.23;4.83;;;3.30;99.90;;;;;;4920565;29;20289;-94
2022/01/31 01:18:36;;;;;;;29.03;5.17;;;3.30;99.90;;;;;;4921185;29;20194;-94
2022/01/31 01:21:02;;;;;;;29.47;5.60;;;3.30;99.90;;;;;;4920893;29;20544;-95
2022/01/31 01:23:31;;;;;;;38.40;6.10;;;3.30;99.90;;;;;;4920488;29;20183;-94
2022/01/31 01:25:57;;;;;;;41.87;6.10;;;3.30;99.90;;;;;;4922650;29;20193;-93
2022/01/31 01:28:25;;;;;;;42.00;5.50;;;3.20;99.90;;;;;;4920165;29;20210;-93
2022/01/31 01:30:51;;;;;;;32.23;5.33;;;3.20;99.90;;;;;;4921577;29;20261;-96
2022/01/31 01:33:22;;;;;;;35.50;5.40;;;3.20;99.90;;;;;;4921873;29;20229;-93
2022/01/31 01:35:50;;;;;;;29.70;4.70;;;3.20;99.90;;;;;;4921042;29;20210;-94
2022/01/31 01:38:18;;;;;;;31.63;5.37;;;3.20;99.90;;;;;;4920455;29;20206;-93
2022/01/31 01:40:47;;;;;;;31.57;5.70;;;3.20;99.90;;;;;;4920384;29;20206;-95
2022/01/31 01:43:14;;;;;;;31.73;5.67;;;3.20;99.90;;;;;;4919664;29;20178;-94
2022/01/31 01:45:42;;;;;;;30.27;5.70;;;3.20;99.90;;;;;;4919771;29;20523;-94
2022/01/31 01:48:09;;;;;;;19.90;4.27;;;3.20;99.90;;;;;;4919319;29;20210;-94
2022/01/31 01:50:37;;;;;;;25.27;5.87;;;3.20;99.90;;;;;;4919984;29;20186;-93
2022/01/31 01:53:03;;;;;;;29.83;4.80;;;3.10;99.90;;;;;;4919920;29;20187;-95
2022/01/31 01:55:31;;;;;;;22.63;4.20;;;3.10;99.90;;;;;;4919717;29;20206;-94
2022/01/31 01:57:57;;;;;;;29.03;5.40;;;3.20;99.90;;;;;;4919233;29;20206;-95
2022/01/31 02:00:26;;;;;;;29.93;5.13;;;3.20;99.90;;;;;;5341662;23;20317;-90
2022/01/31 02:02:52;;;;;;;34.03;6.07;;;3.20;99.90;;;;;;4898596;29;20187;-91
2022/01/31 02:05:18;;;;;;;29.60;5.80;;;3.20;99.90;;;;;;4914304;29;20183;-90
2022/01/31 02:07:45;;;;;;;27.77;4.47;;;3.20;99.90;;;;;;4914349;29;20274;-91
2022/01/31 02:10:11;;;;;;;33.83;6.33;;;3.10;99.90;;;;;;4917413;29;20201;-91
2022/01/31 02:12:46;;;;;;;41.07;6.77;;;3.10;99.90;;;;;;4917147;29;20194;-91
2022/01/31 02:15:13;;;;;;;23.03;4.67;;;3.10;99.90;;;;;;4917494;29;20264;-91
2022/01/31 02:17:39;;;;;;;31.37;5.83;;;3.10;99.90;;;;;;4917395;29;20249;-91
2022/01/31 02:20:07;;;;;;;26.03;5.13;;;3.10;99.90;;;;;;4917370;29;20175;-91
2022/01/31 02:22:32;;;;;;;38.23;5.97;;;3.10;99.90;;;;;;4917138;29;20183;-91
2022/01/31 02:24:58;;;;;;;26.07;5.23;;;3.10;99.90;;;;;;4918473;29;20167;-91
2022/01/31 02:27:35;;;;;;;28.37;6.20;;;3.10;99.90;;;;;;4916961;29;20182;-91
2022/01/31 02:30:03;;;;;;;36.60;5.97;;;3.10;99.90;;;;;;4917048;29;20187;-91
2022/01/31 02:32:29;;;;;;;33.97;6.23;;;3.10;99.90;;;;;;4917363;29;20190;-91
2022/01/31 02:34:54;;;;;;;25.27;5.27;;;3.10;99.90;;;;;;4917105;29;20175;-92
2022/01/31 02:37:20;;;;;;;32.50;5.63;;;3.10;99.90;;;;;;4917199;29;20269;-91
2022/01/31 02:39:46;;;;;;;36.13;5.57;;;3.10;99.90;;;;;;4916754;29;20380;-91
2022/01/31 02:42:13;;;;;;;29.80;5.80;;;3.20;99.90;;;;;;4917163;29;20246;-91
2022/01/31 02:44:41;;;;;;;34.97;6.03;;;3.20;99.90;;;;;;4916944;29;20194;-90
2022/01/31 02:47:11;;;;;;;37.70;6.70;;;3.10;99.90;;;;;;4916919;29;20629;-92
2022/01/31 02:49:47;;;;;;;26.70;6.20;;;3.10;99.90;;;;;;4917014;29;20179;-91
2022/01/31 02:52:14;;;;;;;25.70;6.03;;;3.10;99.90;;;;;;4917144;29;20204;-91
2022/01/31 02:54:40;;;;;;;31.07;5.37;;;3.00;99.90;;;;;;4916928;29;20622;-91
2022/01/31 02:57:06;;;;;;;32.00;5.43;;;3.00;99.90;;;;;;4918016;29;20262;-90
2022/01/31 02:59:32;;;;;;;23.87;5.40;;;3.00;99.90;;;;;;4918590;29;20179;-91
2022/01/31 03:01:58;;;;;;;34.73;5.57;;;3.00;99.90;;;;;;4920233;29;20238;-91
2022/01/31 03:04:24;;;;;;;31.97;6.17;;;3.00;99.90;;;;;;4920332;29;20266;-90
2022/01/31 03:06:50;;;;;;;26.17;5.47;;;3.00;99.90;;;;;;4919528;29;20286;-91
2022/01/31 03:09:17;;;;;;;35.97;5.43;;;3.00;99.90;;;;;;4920384;29;20193;-91
2022/01/31 03:11:42;;;;;;;33.93;6.10;;;3.00;99.90;;;;;;4920403;29;20184;-91
2022/01/31 03:14:09;;;;;;;35.77;6.33;;;3.00;99.90;;;;;;4919910;29;20183;-91
2022/01/31 03:16:40;;;;;;;30.17;5.97;;;3.00;99.90;;;;;;4916180;29;20218;-91
2022/01/31 03:19:06;;;;;;;28.37;5.57;;;3.00;99.90;;;;;;4903955;29;20855;-91
2022/01/31 03:21:32;;;;;;;42.67;6.27;;;3.00;99.90;;;;;;4919924;29;20187;-91
2022/01/31 03:23:57;;;;;;;39.67;5.47;;;3.00;99.90;;;;;;4920228;29;20185;-91
2022/01/31 03:26:23;;;;;;;33.90;5.50;;;3.00;99.90;;;;;;4919772;29;20183;-90
2022/01/31 03:28:51;;;;;;;31.90;5.97;;;3.00;99.90;;;;;;4920685;29;20171;-91
2022/01/31 03:31:19;;;;;;;36.17;6.77;;;3.00;99.90;;;;;;4920987;29;20207;-90
2022/01/31 03:33:49;;;;;;;36.60;6.63;;;3.10;99.90;;;;;;4920152;29;20235;-91
2022/01/31 03:36:15;;;;;;;31.43;6.07;;;3.10;99.90;;;;;;4921037;29;20320;-91
2022/01/31 03:38:41;;;;;;;35.13;5.57;;;3.10;99.90;;;;;;4919856;29;20645;-91
2022/01/31 03:41:15;;;;;;;32.00;5.13;;;3.10;99.90;;;;;;4919839;29;20182;-91
2022/01/31 03:43:41;;;;;;;28.70;5.07;;;3.20;99.90;;;;;;4919568;29;20182;-91
2022/01/31 03:46:07;;;;;;;31.17;5.60;;;3.10;99.90;;;;;;4919697;29;20179;-91
2022/01/31 03:48:34;;;;;;;27.93;5.57;;;3.10;99.90;;;;;;4920748;29;20175;-91
2022/01/31 03:51:02;;;;;;;33.17;5.33;;;3.00;99.90;;;;;;4919705;29;20490;-91
2022/01/31 03:53:29;;;;;;;23.40;4.00;;;2.90;99.90;;;;;;4919644;29;20287;-91
2022/01/31 03:55:55;;;;;;;28.43;5.70;;;2.90;99.90;;;;;;4919313;29;20246;-91
2022/01/31 03:58:25;;;;;;;30.40;5.23;;;2.90;99.90;;;;;;4920327;29;20210;-91
2022/01/31 04:00:51;;;;;;;34.17;5.53;;;2.90;99.90;;;;;;4919065;29;20237;-91
2022/01/31 04:03:17;;;;;;;32.40;5.00;;;2.90;99.90;;;;;;4920773;29;20206;-91
2022/01/31 04:05:43;;;;;;;29.97;5.30;;;2.90;99.90;;;;;;4919385;29;20181;-91
2022/01/31 04:08:09;;;;;;;25.07;5.60;;;2.90;99.90;;;;;;4919055;29;20225;-91
2022/01/31 04:10:36;;;;;;;27.53;5.70;;;2.90;99.90;;;;;;4919072;29;20230;-91
2022/01/31 04:13:03;;;;;;;19.90;4.37;;;2.90;99.90;;;;;;4918945;29;20187;-90
2022/01/31 04:15:29;;;;;;;29.80;5.07;;;2.90;99.90;;;;;;4918943;29;20202;-91
2022/01/31 04:17:55;;;;;;;29.90;6.07;;;2.90;99.90;;;;;;4919021;29;20278;-91
2022/01/31 04:20:20;;;;;;;25.40;3.90;;;2.90;99.90;;;;;;4919161;29;20182;-90
2022/01/31 04:23:09;;;;;;;31.67;5.57;;;2.90;99.90;;;;;;4919225;29;20193;-92
2022/01/31 04:28:21;;;;;;;29.80;6.20;;;2.80;99.90;;;;;;4919730;29;20163;-91
2022/01/31 04:30:57;;;;;;;29.97;4.87;;;2.80;99.90;;;;;;4918995;29;20514;-91
2022/01/31 04:33:24;;;;;;;23.13;4.60;;;2.80;99.90;;;;;;4918801;29;20237;-91
2022/01/31 04:35:50;;;;;;;31.60;4.90;;;2.90;99.90;;;;;;4918645;29;20207;-90
2022/01/31 04:38:16;;;;;;;24.57;4.53;;;2.90;99.90;;;;;;4918563;29;20187;-91
2022/01/31 04:40:42;;;;;;;22.17;4.80;;;2.90;99.90;;;;;;4918394;29;20523;-91
2022/01/31 04:43:08;;;;;;;24.93;4.93;;;2.90;99.90;;;;;;4918655;29;20539;-91
2022/01/31 04:45:34;;;;;;;30.87;5.90;;;2.90;99.90;;;;;;4918461;29;20185;-91
2022/01/31 04:47:59;;;;;;;31.83;5.40;;;2.90;99.90;;;;;;4918259;29;20182;-91
2022/01/31 04:50:25;;;;;;;25.30;5.13;;;2.90;99.90;;;;;;4918570;29;20178;-91
2022/01/31 04:52:51;;;;;;;25.40;4.40;;;2.90;99.90;;;;;;4918487;29;20277;-91
2022/01/31 04:55:16;;;;;;;19.87;4.37;;;2.90;99.90;;;;;;4918317;29;20182;-91
2022/01/31 04:57:42;;;;;;;33.60;5.50;;;2.90;99.90;;;;;;4918451;29;20587;-90
2022/01/31 05:00:09;;;;;;;24.63;4.60;;;2.90;99.90;;;;;;4918140;29;20302;-91
2022/01/31 05:02:38;;;;;;;23.73;4.73;;;2.90;99.90;;;;;;4918460;29;20193;-91
2022/01/31 05:05:04;;;;;;;17.10;4.60;;;2.90;99.90;;;;;;4917991;29;20179;-91
2022/01/31 05:07:30;;;;;;;21.30;4.33;;;2.90;99.90;;;;;;4917921;29;20214;-91
2022/01/31 05:09:56;;;;;;;25.87;4.77;;;2.90;99.90;;;;;;4918243;29;20552;-91
2022/01/31 05:12:23;;;;;;;25.27;4.87;;;3.00;99.90;;;;;;4918146;29;20214;-91
2022/01/31 05:14:48;;;;;;;26.90;5.60;;;3.10;99.90;;;;;;4917954;29;20170;-91
2022/01/31 05:17:14;;;;;;;23.67;4.73;;;3.00;99.90;;;;;;4918180;29;20225;-91
2022/01/31 05:19:40;;;;;;;18.43;4.30;;;3.10;99.90;;;;;;4918019;29;20183;-91
2022/01/31 05:22:05;;;;;;;19.37;4.70;;;3.10;99.90;;;;;;4917786;29;20194;-91
2022/01/31 05:24:31;;;;;;;28.10;5.17;;;3.10;99.90;;;;;;4917886;29;20189;-91
2022/01/31 05:26:57;;;;;;;24.30;4.83;;;3.10;99.90;;;;;;4917968;29;20322;-91
2022/01/31 05:29:22;;;;;;;27.00;4.70;;;3.10;99.90;;;;;;4917944;29;20197;-91
2022/01/31 05:31:49;;;;;;;22.50;4.33;;;3.10;99.90;;;;;;4917898;29;20178;-91
2022/01/31 05:34:17;;;;;;;20.90;4.23;;;3.10;99.90;;;;;;4918160;29;20182;-91
2022/01/31 05:36:43;;;;;;;21.47;4.73;;;3.00;99.90;;;;;;4917818;29;20217;-90
2022/01/31 05:39:08;;;;;;;26.73;4.73;;;2.90;99.90;;;;;;4918038;29;20179;-91
2022/01/31 05:41:34;;;;;;;23.37;4.97;;;2.90;99.90;;;;;;4918070;29;20217;-91
2022/01/31 05:44:01;;;;;;;18.87;4.50;;;2.80;99.90;;;;;;4917404;29;20238;-90
2022/01/31 05:46:26;;;;;;;23.50;5.23;;;2.80;99.90;;;;;;4917633;29;20490;-91
2022/01/31 05:48:53;;;;;;;21.87;5.27;;;2.80;99.90;;;;;;4918745;29;20219;-92
2022/01/31 05:51:21;;;;;;;21.03;4.87;;;2.80;99.90;;;;;;4917713;29;20273;-91
2022/01/31 05:53:48;;;;;;;29.40;4.97;;;2.80;99.90;;;;;;4917752;29;20190;-91
2022/01/31 05:56:15;;;;;;;18.80;4.37;;;2.80;99.90;;;;;;4917630;29;20216;-91
2022/01/31 05:58:42;;;;;;;27.47;5.47;;;2.70;99.90;;;;;;4917389;29;20210;-91
2022/01/31 06:01:08;;;;;;;23.93;4.73;;;2.60;99.90;;;;;;4917428;29;20780;-91
2022/01/31 06:03:34;;;;;;;27.47;4.87;;;2.60;99.90;;;;;;4917479;29;20233;-91
2022/01/31 06:06:00;;;;;;;15.87;4.43;;;2.60;99.90;;;;;;4917460;29;20174;-91
2022/01/31 06:08:26;;;;;;;22.83;5.00;;;2.60;99.90;;;;;;4917396;29;20187;-91
2022/01/31 06:10:52;;;;;;;17.63;4.43;;;2.50;99.90;;;;;;4918862;29;20189;-91
2022/01/31 06:13:23;;;;;;;18.93;5.20;;;2.50;99.90;;;;;;4917180;29;20186;-90
2022/01/31 06:15:49;;;;;;;14.27;3.77;;;2.40;99.90;;;;;;4917412;29;20216;-91
2022/01/31 06:18:15;;;;;;;22.00;4.40;;;2.30;99.90;;;;;;4917379;29;20220;-90
2022/01/31 06:20:41;;;;;;;19.17;4.10;;;2.30;99.90;;;;;;4917535;29;20214;-89
2022/01/31 06:23:07;;;;;;;19.00;4.00;;;2.20;99.90;;;;;;4917408;29;20221;-91
2022/01/31 06:25:34;;;;;;;18.70;4.30;;;2.20;99.90;;;;;;4917473;29;20641;-91
2022/01/31 06:28:00;;;;;;;17.03;5.17;;;2.20;99.90;;;;;;4917380;29;20183;-91
2022/01/31 06:30:26;;;;;;;17.43;4.27;;;2.10;99.90;;;;;;4917086;29;20185;-91
2022/01/31 06:32:55;;;;;;;19.67;4.40;;;2.10;99.90;;;;;;4917424;29;20637;-92
2022/01/31 06:35:21;;;;;;;18.53;4.53;;;2.10;99.90;;;;;;4917073;29;20175;-91
2022/01/31 06:37:46;;;;;;;21.43;5.03;;;2.10;99.90;;;;;;4920657;29;20245;-90
2022/01/31 06:40:14;;;;;;;20.20;4.30;;;2.00;99.90;;;;;;4920267;29;20214;-90
2022/01/31 06:42:40;;;;;;;16.87;4.70;;;2.00;99.90;;;;;;4920818;29;20183;-92
2022/01/31 06:45:07;;;;;;;12.60;3.80;;;2.00;99.90;;;;;;4920253;29;20183;-92
2022/01/31 06:47:33;;;;;;;22.40;5.53;;;1.90;99.90;;;;;;4920727;29;20179;-92
2022/01/31 06:49:59;;;;;;;17.47;4.50;;;1.90;99.90;;;;;;4918649;29;20191;-92
2022/01/31 06:52:27;;;;;;;18.83;5.20;;;1.90;99.90;;;;;;4920005;29;20219;-93
2022/01/31 06:54:54;;;;;;;18.80;4.43;;;1.80;99.90;;;;;;4919674;29;20183;-91
2022/01/31 06:57:23;;;;;;;17.27;4.60;;;1.80;99.90;;;;;;4920324;29;20611;-91
2022/01/31 06:59:49;;;;;;;18.67;4.70;;;1.80;99.90;;;;;;4920566;29;20189;-90
2022/01/31 07:02:15;;;;;;;18.07;5.23;;;1.80;99.90;;;;;;4916022;29;20235;-91
2022/01/31 07:04:41;;;;;;;13.43;4.40;;;1.80;99.90;;;;;;4917099;29;20250;-90
2022/01/31 07:07:07;;;;;;;17.67;4.70;;;1.70;99.90;;;;;;4914738;29;20207;-90
2022/01/31 07:09:35;;;;;;;16.90;5.07;;;1.70;99.90;;;;;;4901342;29;20236;-90
2022/01/31 07:12:03;;;;;;;21.67;4.93;;;1.80;99.90;;;;;;4901310;29;20215;-91
2022/01/31 07:14:30;;;;;;;15.83;4.73;;;1.70;99.90;;;;;;4910047;29;20253;-90
2022/01/31 07:17:02;;;;;;;18.93;5.00;;;1.80;99.90;;;;;;4920081;29;20253;-93
2022/01/31 07:19:31;;;;;;;15.53;4.80;;;1.80;99.90;;;;;;4919858;29;20266;-92
2022/01/31 07:21:56;;;;;;;16.47;4.47;;;1.80;99.90;;;;;;4919472;29;20187;-91
2022/01/31 07:24:42;;;;;;;14.93;5.07;;;1.80;99.90;;;;;;4914286;29;20274;-91
2022/01/31 07:27:08;;;;;;;12.33;4.63;;;1.70;99.90;;;;;;4901089;29;20701;-91
2022/01/31 07:29:33;;;;;;;15.23;5.00;;;1.70;99.90;;;;;;4905414;29;20231;-91
2022/01/31 07:32:00;;;;;;;12.27;4.30;;;1.70;99.90;;;;;;4908623;29;20218;-91
2022/01/31 07:34:26;;;;;;;19.50;4.47;;;1.70;99.90;;;;;;4910329;29;20235;-90
2022/01/31 07:36:53;;;;;;;13.20;3.70;;;1.70;99.90;;;;;;4902142;29;20215;-91
2022/01/31 07:39:20;;;;;;;16.83;4.20;;;1.70;99.90;;;;;;4908801;29;20174;-91
2022/01/31 07:41:47;;;;;;;13.00;4.87;;;1.70;99.90;;;;;;4920562;29;20675;-92
2022/01/31 07:44:13;;;;;;;14.90;4.27;;;1.70;99.90;;;;;;4918385;29;20190;-92
2022/01/31 07:46:40;;;;;;;18.63;4.00;;;1.70;99.90;;;;;;4919814;29;20193;-93
2022/01/31 07:49:06;;;;;;;17.83;4.67;;;1.70;99.90;;;;;;4919820;29;20182;-92
2022/01/31 07:51:35;;;;;;;12.20;3.70;;;1.70;99.90;;;;;;4918970;29;20190;-91
2022/01/31 07:54:01;;;;;;;16.27;4.80;;;1.70;99.90;;;;;;4919612;29;20310;-91
2022/01/31 07:56:27;;;;;;;13.60;4.37;;;1.60;99.90;;;;;;4917866;29;20214;-90
2022/01/31 07:58:53;;;;;;;8.93;3.77;;;1.70;99.90;;;;;;4918007;29;20190;-91
2022/01/31 08:01:19;;;;;;;11.80;3.70;;;1.60;99.90;;;;;;4917868;29;20289;-92
2022/01/31 08:03:47;;;;;;;15.00;3.90;;;1.60;99.90;;;;;;4918308;29;20198;-92
2022/01/31 08:06:14;;;;;;;16.47;4.27;;;1.60;99.90;;;;;;4900768;29;20209;-92
2022/01/31 08:08:41;;;;;;;12.37;3.20;;;1.60;99.90;;;;;;4910309;29;20582;-91
2022/01/31 08:11:08;;;;;;;9.93;3.70;;;1.70;99.90;;;;;;4918117;29;20634;-90
2022/01/31 08:13:34;;;;;;;13.10;3.97;;;1.60;99.90;;;;;;4914467;29;20203;-91
2022/01/31 08:16:09;;;;;;;10.23;3.83;;;1.60;99.90;;;;;;4905384;29;20222;-91
2022/01/31 08:18:41;;;;;;;8.57;3.50;;;1.60;99.90;;;;;;4899466;29;20249;-91
2022/01/31 08:21:08;;;;;;;9.33;3.60;;;1.60;99.90;;;;;;4914481;29;20529;-90
2022/01/31 08:23:34;;;;;;;9.00;3.47;;;1.60;99.90;;;;;;4915741;29;20191;-90
2022/01/31 08:26:04;;;;;;;8.70;3.40;;;1.60;99.90;;;;;;4917492;29;20238;-90
2022/01/31 08:28:35;;;;;;;7.63;3.27;;;1.60;99.90;;;;;;4917563;29;20265;-90
2022/01/31 08:31:07;;;;;;;9.47;3.30;;;1.60;99.90;;;;;;4917166;29;20199;-91
2022/01/31 08:33:48;;;;;;;8.57;3.77;;;1.60;99.90;;;;;;4918549;29;20282;-90
2022/01/31 08:36:16;;;;;;;7.67;3.07;;;1.60;99.90;;;;;;4917410;29;20218;-91
2022/01/31 08:38:43;;;;;;;4.67;2.40;;;1.60;99.90;;;;;;4918537;29;20210;-92
2022/01/31 08:41:11;;;;;;;6.33;3.10;;;1.60;99.90;;;;;;4917315;29;20281;-91
2022/01/31 08:43:38;;;;;;;7.33;2.80;;;1.70;99.90;;;;;;4914346;29;20191;-91
2022/01/31 08:46:05;;;;;;;4.70;2.17;;;1.70;99.90;;;;;;4915126;29;20191;-92
2022/01/31 08:48:31;;;;;;;6.80;2.97;;;1.70;99.90;;;;;;4913201;29;20281;-90
2022/01/31 08:50:57;;;;;;;3.13;2.07;;;1.70;99.90;;;;;;4917988;29;20217;-90
2022/01/31 08:53:23;;;;;;;4.63;2.60;;;1.70;99.90;;;;;;4912645;29;20183;-91
2022/01/31 08:55:52;;;;;;;3.23;1.90;;;1.70;99.90;;;;;;4916804;29;20233;-91
2022/01/31 08:58:19;;;;;;;5.57;2.00;;;1.80;99.90;;;;;;4911853;29;20611;-92
2022/01/31 09:00:49;;;;;;;4.00;2.47;;;1.80;99.90;;;;;;4915056;29;20279;-93
2022/01/31 09:03:34;;;;;;;5.27;2.27;;;1.80;99.90;;;;;;4911206;29;20187;-95
2022/01/31 09:06:01;;;;;;;5.40;2.50;;;1.80;99.90;;;;;;4899320;29;20187;-94
2022/01/31 09:08:26;;;;;;;5.20;2.50;;;1.80;99.90;;;;;;4900695;29;20183;-94
2022/01/31 09:10:52;;;;;;;3.73;2.43;;;1.80;99.90;;;;;;4917696;29;20189;-93
2022/01/31 09:13:18;;;;;;;3.00;2.20;;;1.80;99.90;;;;;;4917955;29;20206;-93
2022/01/31 09:15:44;;;;;;;3.03;2.03;;;1.80;99.90;;;;;;4917658;29;20202;-94
2022/01/31 09:18:09;;;;;;;2.87;1.70;;;1.90;99.90;;;;;;4904392;29;20191;-92
2022/01/31 09:20:36;;;;;;;3.40;1.90;;;1.90;99.90;;;;;;4899425;29;20186;-94
2022/01/31 09:23:02;;;;;;;3.17;1.57;;;1.90;99.90;;;;;;4899239;29;20195;-93
2022/01/31 09:25:29;;;;;;;2.17;1.50;;;1.90;99.90;;;;;;4913448;29;20186;-93
2022/01/31 09:27:56;;;;;;;3.13;1.67;;;1.90;99.90;;;;;;4917706;29;20190;-94
2022/01/31 09:30:22;;;;;;;3.07;1.60;;;1.90;99.90;;;;;;4917057;29;20252;-94
2022/01/31 09:32:48;;;;;;;2.80;1.73;;;1.90;99.90;;;;;;4917565;29;20194;-93
2022/01/31 09:35:15;;;;;;;2.50;1.53;;;1.90;99.90;;;;;;4917900;29;20202;-93
2022/01/31 09:37:41;;;;;;;3.07;1.70;;;1.90;99.90;;;;;;4916625;29;20186;-92
2022/01/31 09:40:07;;;;;;;2.10;1.50;;;1.90;99.90;;;;;;4917205;29;20183;-93
2022/01/31 09:43:00;;;;;;;2.53;1.80;;;1.90;99.90;;;;;;4916605;29;20194;-92
2022/01/31 09:45:48;;;;;;;2.27;1.33;;;1.90;99.90;;;;;;4918709;29;20196;-92
2022/01/31 09:50:33;;;;;;;2.03;1.47;;;1.90;99.90;;;;;;4919099;29;20188;-93
2022/01/31 09:52:58;;;;;;;1.73;1.60;;;1.90;99.90;;;;;;4917476;29;20206;-93
2022/01/31 09:55:26;;;;;;;2.33;1.50;;;1.90;99.90;;;;;;4917252;29;20217;-92
2022/01/31 09:57:52;;;;;;;1.70;1.53;;;2.00;99.90;;;;;;4916826;29;20253;-93
2022/01/31 10:00:18;;;;;;;2.30;1.70;;;2.00;99.90;;;;;;4916542;29;20216;-94
2022/01/31 10:03:07;;;;;;;1.90;1.70;;;2.00;99.90;;;;;;4916902;29;20179;-94
2022/01/31 10:05:33;;;;;;;3.03;2.07;;;2.00;99.90;;;;;;4902483;29;20282;-95
2022/01/31 10:08:10;;;;;;;3.27;2.20;;;2.00;99.90;;;;;;4899803;29;20251;-92
2022/01/31 10:10:41;;;;;;;2.23;2.00;;;2.00;99.90;;;;;;4902563;29;20187;-95
2022/01/31 10:16:30;;;;;;;3.13;2.40;;;2.10;99.90;;;;;;4922367;29;20220;-93
2022/01/31 10:19:09;;;;;;;3.23;2.10;;;2.10;99.90;;;;;;4921569;29;20174;-93
2022/01/31 10:21:56;;;;;;;4.00;2.50;;;2.10;99.90;;;;;;4920138;29;20213;-95
2022/01/31 10:24:24;;;;;;;4.10;2.73;;;2.10;99.90;;;;;;4922104;29;20190;-94
2022/01/31 10:26:50;;;;;;;4.43;2.57;;;2.20;99.90;;;;;;4920691;29;20693;-94
2022/01/31 10:29:18;;;;;;;4.23;2.80;;;2.10;99.90;;;;;;4913354;29;20199;-93
2022/01/31 10:32:03;;;;;;;4.03;2.77;;;2.10;99.90;;;;;;4904794;29;20197;-92
2022/01/31 10:34:32;;;;;;;3.47;2.60;;;2.10;99.90;;;;;;4925231;29;20194;-94
2022/01/31 10:37:07;;;;;;;3.83;2.83;;;2.10;99.90;;;;;;4911479;29;20301;-93
2022/01/31 10:53:47;;;;;;;4.70;3.20;;;2.10;99.90;;;;;;4902887;29;20171;-94
2022/01/31 10:56:13;;;;;;;3.53;2.80;;;2.10;99.90;;;;;;4901655;29;20219;-94
2022/01/31 10:58:56;;;;;;;5.20;2.90;;;2.20;99.90;;;;;;4901627;29;20219;-96
2022/01/31 11:01:23;;;;;;;4.80;3.57;;;2.10;99.90;;;;;;4901177;29;20234;-94
2022/01/31 11:03:49;;;;;;;4.83;3.53;;;2.10;99.90;;;;;;4902691;29;20187;-94
2022/01/31 11:06:14;;;;;;;4.03;3.00;;;2.20;99.90;;;;;;4901419;29;20519;-95
2022/01/31 11:08:40;;;;;;;4.47;3.53;;;2.20;99.90;;;;;;4918150;29;20191;-94
2022/01/31 11:11:06;;;;;;;3.67;3.07;;;2.20;99.90;;;;;;4920130;29;20241;-92
2022/01/31 11:13:34;;;;;;;3.67;3.00;;;2.20;99.90;;;;;;4913875;29;20191;-91
2022/01/31 11:16:00;;;;;;;3.63;3.10;;;2.30;99.90;;;;;;4919852;29;20222;-94
2022/01/31 11:18:31;;;;;;;4.13;3.20;;;2.30;99.90;;;;;;4919851;29;20182;-92
2022/01/31 11:21:05;;;;;;;5.87;3.50;;;2.30;99.90;;;;;;4919639;29;20183;-93
2022/01/31 11:23:38;;;;;;;4.50;3.50;;;2.30;99.90;;;;;;4920137;29;20194;-96
2022/01/31 11:26:09;;;;;;;4.10;3.40;;;2.40;99.90;;;;;;4920051;29;20178;-93
2022/01/31 11:28:38;;;;;;;4.07;3.50;;;2.40;99.90;;;;;;4919794;29;20262;-93
2022/01/31 11:31:04;;;;;;;6.27;3.50;;;2.40;99.90;;;;;;4903492;29;20180;-92
2022/01/31 11:33:31;;;;;;;5.63;3.67;;;2.40;99.90;;;;;;4901278;29;20190;-92
2022/01/31 11:35:58;;;;;;;5.80;4.00;;;2.40;99.90;;;;;;4901039;29;20254;-92
2022/01/31 11:38:24;;;;;;;4.20;3.40;;;2.40;99.90;;;;;;4915780;29;20186;-93
2022/01/31 11:40:51;;;;;;;5.10;3.40;;;2.50;99.90;;;;;;4921151;29;20638;-92
2022/01/31 11:43:20;;;;;;;4.80;3.87;;;2.50;99.90;;;;;;4917543;29;20210;-93
2022/01/31 11:45:50;;;;;;;5.10;3.87;;;2.50;99.90;;;;;;4900571;29;20210;-92
2022/01/31 11:48:29;;;;;;;6.80;4.00;;;2.50;99.90;;;;;;4900731;29;20670;-92
2022/01/31 11:51:02;;;;;;;4.77;3.47;;;2.50;99.90;;;;;;4900511;29;20179;-92
2022/01/31 11:53:34;;;;;;;6.10;5.03;;;2.60;99.90;;;;;;4900423;29;20176;-93
2022/01/31 11:56:08;;;;;;;7.40;5.70;;;2.50;99.90;;;;;;4903328;29;20265;-92
2022/01/31 11:58:42;;;;;;;6.63;5.87;;;2.50;99.90;;;;;;4913775;29;20217;-93
2022/01/31 12:01:08;;;;;;;10.53;7.67;;;2.50;99.90;;;;;;4918762;29;20674;-92
2022/01/31 12:03:35;;;;;;;8.87;6.53;;;2.50;99.90;;;;;;4918297;29;20218;-92
2022/01/31 12:06:09;;;;;;;7.80;6.30;;;2.50;99.90;;;;;;4918933;29;20186;-93
2022/01/31 12:08:38;;;;;;;6.63;5.27;;;2.60;99.90;;;;;;4917644;29;20190;-93
2022/01/31 12:11:15;;;;;;;9.27;5.67;;;2.50;99.90;;;;;;4918945;29;20533;-91
2022/01/31 12:13:46;;;;;;;5.63;4.83;;;2.60;99.90;;;;;;4919247;29;20280;-92
2022/01/31 12:22:08;;;;;;;6.70;5.20;;;2.60;99.90;;;;;;4900996;29;20611;-93
2022/01/31 12:24:42;;;;;;;11.00;5.20;;;2.60;99.90;;;;;;4900081;29;20194;-93
2022/01/31 12:27:09;;;;;;;4.77;4.23;;;2.50;99.90;;;;;;4900074;29;20590;-92
2022/01/31 12:29:51;;;;;;;5.07;4.57;;;2.50;99.90;;;;;;4900108;29;20187;-92
2022/01/31 12:32:24;;;;;;;10.93;7.10;;;2.50;99.90;;;;;;4899115;29;20183;-92
2022/01/31 12:34:59;;;;;;;13.83;8.07;;;2.40;99.90;;;;;;4899839;29;20194;-92
2022/01/31 12:37:48;;;;;;;9.23;7.03;;;2.50;99.90;;;;;;4903349;29;20222;-93
2022/01/31 12:40:29;;;;;;;5.93;4.93;;;2.40;99.90;;;;;;4918626;29;20614;-92
2022/01/31 12:45:54;;;;;;;8.03;5.90;;;2.50;99.90;;;;;;4919623;29;20514;-92
2022/01/31 12:48:23;;;;;;;10.37;5.83;;;2.50;99.90;;;;;;4918453;29;20187;-92
2022/01/31 12:50:48;;;;;;;9.00;5.87;;;2.60;99.90;;;;;;4919731;29;20177;-93
2022/01/31 12:53:37;;;;;;;3.70;2.93;;;2.60;99.90;;;;;;5112668;27;20638;-95
2022/01/31 12:56:13;;;;;;;3.23;2.20;;;2.60;99.90;;;;;;5111711;28;20602;-93
2022/01/31 12:58:46;;;;;;;8.17;4.60;;;2.60;99.90;;;;;;5111747;28;20598;-93
2022/01/31 13:01:21;;;;;;;10.83;6.83;;;2.60;99.90;;;;;;5111118;28;20207;-93
2022/01/31 13:03:50;;;;;;;19.03;11.10;;;2.60;99.90;;;;;;5111202;28;20521;-92
2022/01/31 13:06:39;;;;;;;6.73;4.97;;;2.60;99.90;;;;;;5111375;28;20184;-92
2022/01/31 13:09:30;;;;;;;5.03;3.07;;;2.60;99.90;;;;;;5110703;28;20180;-92
2022/01/31 13:12:01;;;;;;;3.27;2.40;;;2.50;99.90;;;;;;5111247;28;20228;-92
2022/01/31 13:14:35;;;;;;;2.33;2.10;;;2.60;99.90;;;;;;5111320;28;20188;-93
2022/01/31 13:17:07;;;;;;;2.47;2.10;;;2.60;99.90;;;;;;5111138;28;20178;-93
2022/01/31 13:19:39;;;;;;;2.87;2.00;;;2.50;99.90;;;;;;5111735;28;20172;-93
2022/01/31 13:22:09;;;;;;;1.57;1.47;;;2.60;99.90;;;;;;5111571;28;20225;-93
2022/01/31 13:24:39;;;;;;;4.40;2.00;;;2.50;99.90;;;;;;5111131;28;20229;-93
2022/01/31 13:27:07;;;;;;;2.47;2.20;;;2.50;99.90;;;;;;5111318;28;20522;-92
2022/01/31 13:29:53;;;;;;;2.60;2.20;;;2.50;99.90;;;;;;5111454;28;20186;-92
2022/01/31 13:32:33;;;;;;;3.30;2.63;;;2.60;99.90;;;;;;5110516;28;20704;-93